sensor_id;sensor_type;location;lat;lon;timestamp;pressure;altitude;pressure_sealevel;temperature;humidity
75428;BME280;64008;55.612;37.698;2022-11-20T00:00:44;99512.66;;;-2.83;94.82
75428;BME280;64008;55.612;37.698;2022-11-20T00:03:10;99514.28;;;-2.82;94.23
75428;BME280;64008;55.612;37.698;2022-11-20T00:05:35;99522.78;;;-2.79;94.22
75428;BME280;64008;55.612;37.698;2022-11-20T00:08:01;99515.38;;;-2.78;94.49
75428;BME280;64008;55.612;37.698;2022-11-20T00:10:26;99518.41;;;-2.80;94.67
75428;BME280;64008;55.612;37.698;2022-11-20T00:12:51;99521.41;;;-2.76;94.36
75428;BME280;64008;55.612;37.698;2022-11-20T00:15:17;99522.50;;;-2.77;94.41
75428;BME280;64008;55.612;37.698;2022-11-20T00:17:42;99529.13;;;-2.73;94.50
75428;BME280;64008;55.612;37.698;2022-11-20T00:20:08;99523.63;;;-2.73;94.23
75428;BME280;64008;55.612;37.698;2022-11-20T00:22:34;99527.16;;;-2.67;94.42
75428;BME280;64008;55.612;37.698;2022-11-20T00:25:00;99526.88;;;-2.66;94.35
75428;BME280;64008;55.612;37.698;2022-11-20T00:27:25;99526.06;;;-2.66;94.19
75428;BME280;64008;55.612;37.698;2022-11-20T00:29:51;99526.06;;;-2.66;94.51
75428;BME280;64008;55.612;37.698;2022-11-20T00:32:16;99526.59;;;-2.64;94.22
75428;BME280;64008;55.612;37.698;2022-11-20T00:34:42;99521.63;;;-2.62;94.32
75428;BME280;64008;55.612;37.698;2022-11-20T00:37:07;99519.69;;;-2.62;93.93
75428;BME280;64008;55.612;37.698;2022-11-20T00:39:33;99529.59;;;-2.61;93.93
75428;BME280;64008;55.612;37.698;2022-11-20T00:41:58;99524.09;;;-2.61;93.53
75428;BME280;64008;55.612;37.698;2022-11-20T00:44:24;99528.22;;;-2.58;93.82
75428;BME280;64008;55.612;37.698;2022-11-20T00:46:49;99520.78;;;-2.63;93.74
75428;BME280;64008;55.612;37.698;2022-11-20T00:49:14;99520.56;;;-2.66;92.82
75428;BME280;64008;55.612;37.698;2022-11-20T00:51:40;99530.47;;;-2.71;93.20
75428;BME280;64008;55.612;37.698;2022-11-20T00:54:05;99535.41;;;-2.67;93.47
75428;BME280;64008;55.612;37.698;2022-11-20T00:56:31;99520.00;;;-2.68;93.22
75428;BME280;64008;55.612;37.698;2022-11-20T00:58:59;99525.50;;;-2.63;93.62
75428;BME280;64008;55.612;37.698;2022-11-20T01:01:25;99524.91;;;-2.60;93.86
75428;BME280;64008;55.612;37.698;2022-11-20T01:03:52;99524.91;;;-2.60;93.36
75428;BME280;64008;55.612;37.698;2022-11-20T01:06:22;99536.47;;;-2.58;93.60
75428;BME280;64008;55.612;37.698;2022-11-20T01:08:50;99531.78;;;-2.63;93.47
75428;BME280;64008;55.612;37.698;2022-11-20T01:11:19;99532.94;;;-2.64;93.41
75428;BME280;64008;55.612;37.698;2022-11-20T01:13:46;99532.38;;;-2.71;92.45
75428;BME280;64008;55.612;37.698;2022-11-20T01:16:17;99520.03;;;-2.79;92.54
75428;BME280;64008;55.612;37.698;2022-11-20T01:18:45;99529.13;;;-2.78;92.47
75428;BME280;64008;55.612;37.698;2022-11-20T01:21:17;99529.13;;;-2.78;92.86
75428;BME280;64008;55.612;37.698;2022-11-20T01:23:44;99536.53;;;-2.79;92.78
75428;BME280;64008;55.612;37.698;2022-11-20T01:26:21;99530.81;;;-2.82;92.67
75428;BME280;64008;55.612;37.698;2022-11-20T01:28:47;99529.19;;;-2.88;92.39
75428;BME280;64008;55.612;37.698;2022-11-20T01:31:22;99533.59;;;-2.92;92.01
75428;BME280;64008;55.612;37.698;2022-11-20T01:33:50;99536.06;;;-2.91;91.97
75428;BME280;64008;55.612;37.698;2022-11-20T01:36:16;99534.97;;;-2.90;92.28
75428;BME280;64008;55.612;37.698;2022-11-20T01:38:43;99534.13;;;-2.90;93.11
75428;BME280;64008;55.612;37.698;2022-11-20T01:41:10;99542.34;;;-2.85;92.95
75428;BME280;64008;55.612;37.698;2022-11-20T01:43:35;99534.72;;;-2.98;91.95
75428;BME280;64008;55.612;37.698;2022-11-20T01:46:03;99532.22;;;-3.00;92.13
75428;BME280;64008;55.612;37.698;2022-11-20T01:49:07;99541.31;;;-2.99;92.24
75428;BME280;64008;55.612;37.698;2022-11-20T01:51:42;99544.91;;;-3.04;91.92
75428;BME280;64008;55.612;37.698;2022-11-20T01:54:13;99542.44;;;-3.05;92.01
75428;BME280;64008;55.612;37.698;2022-11-20T01:56:43;99546.84;;;-3.04;92.02
75428;BME280;64008;55.612;37.698;2022-11-20T01:59:10;99547.13;;;-3.06;91.95
75428;BME280;64008;55.612;37.698;2022-11-20T02:01:37;99563.34;;;-3.04;92.21
75428;BME280;64008;55.612;37.698;2022-11-20T02:04:05;99564.72;;;-3.07;91.78
75428;BME280;64008;55.612;37.698;2022-11-20T02:06:36;99569.94;;;-3.11;91.81
75428;BME280;64008;55.612;37.698;2022-11-20T02:09:03;99568.84;;;-3.15;91.71
75428;BME280;64008;55.612;37.698;2022-11-20T02:11:30;99568.56;;;-3.18;91.53
75428;BME280;64008;55.612;37.698;2022-11-20T02:13:56;99574.38;;;-3.20;91.91
75428;BME280;64008;55.612;37.698;2022-11-20T02:16:27;99576.00;;;-3.19;92.02
75428;BME280;64008;55.612;37.698;2022-11-20T02:18:55;99571.31;;;-3.18;92.41
75428;BME280;64008;55.612;37.698;2022-11-20T02:21:49;99579.84;;;-3.15;92.64
75428;BME280;64008;55.612;37.698;2022-11-20T02:24:19;99579.03;;;-3.15;92.13
75428;BME280;64008;55.612;37.698;2022-11-20T02:26:52;99576.56;;;-3.12;92.53
75428;BME280;64008;55.612;37.698;2022-11-20T02:29:57;99580.69;;;-3.14;91.67
75428;BME280;64008;55.612;37.698;2022-11-20T02:32:33;99587.81;;;-3.18;91.73
75428;BME280;64008;55.612;37.698;2022-11-20T02:37:43;99583.44;;;-3.14;92.45
75428;BME280;64008;55.612;37.698;2022-11-20T02:40:10;99584.81;;;-3.12;92.27
75428;BME280;64008;55.612;37.698;2022-11-20T02:42:36;99586.72;;;-3.07;92.29
75428;BME280;64008;55.612;37.698;2022-11-20T02:45:03;99592.22;;;-3.07;92.11
75428;BME280;64008;55.612;37.698;2022-11-20T02:47:28;99596.06;;;-3.08;92.32
75428;BME280;64008;55.612;37.698;2022-11-20T02:49:54;99586.19;;;-3.14;91.28
75428;BME280;64008;55.612;37.698;2022-11-20T02:52:19;99592.75;;;-3.10;91.77
75428;BME280;64008;55.612;37.698;2022-11-20T02:54:45;99597.72;;;-3.07;91.79
75428;BME280;64008;55.612;37.698;2022-11-20T02:57:10;99585.06;;;-3.08;91.78
75428;BME280;64008;55.612;37.698;2022-11-20T02:59:36;99588.09;;;-3.10;91.62
75428;BME280;64008;55.612;37.698;2022-11-20T03:02:01;99594.16;;;-3.13;91.56
75428;BME280;64008;55.612;37.698;2022-11-20T03:04:26;99587.56;;;-3.12;91.95
75428;BME280;64008;55.612;37.698;2022-11-20T03:06:52;99589.72;;;-3.09;92.08
75428;BME280;64008;55.612;37.698;2022-11-20T03:09:17;99589.47;;;-3.07;91.97
75428;BME280;64008;55.612;37.698;2022-11-20T03:11:43;99596.63;;;-3.06;92.16
75428;BME280;64008;55.612;37.698;2022-11-20T03:14:08;99590.56;;;-3.08;92.11
75428;BME280;64008;55.612;37.698;2022-11-20T03:16:34;99598.81;;;-3.08;91.78
75428;BME280;64008;55.612;37.698;2022-11-20T03:19:00;99603.22;;;-3.07;92.24
75428;BME280;64008;55.612;37.698;2022-11-20T03:21:25;99603.78;;;-3.05;92.31
75428;BME280;64008;55.612;37.698;2022-11-20T03:23:53;99605.41;;;-3.04;92.61
75428;BME280;64008;55.612;37.698;2022-11-20T03:26:20;99609.78;;;-3.03;92.47
75428;BME280;64008;55.612;37.698;2022-11-20T03:28:51;99608.16;;;-3.04;92.15
75428;BME280;64008;55.612;37.698;2022-11-20T03:31:19;99602.66;;;-3.09;91.27
75428;BME280;64008;55.612;37.698;2022-11-20T03:33:45;99605.13;;;-3.08;91.79
75428;BME280;64008;55.612;37.698;2022-11-20T03:36:13;99604.59;;;-3.04;92.07
75428;BME280;64008;55.612;37.698;2022-11-20T03:38:40;99604.59;;;-3.04;92.08
75428;BME280;64008;55.612;37.698;2022-11-20T03:41:08;99607.88;;;-3.02;91.84
75428;BME280;64008;55.612;37.698;2022-11-20T03:43:34;99618.59;;;-3.01;92.30
75428;BME280;64008;55.612;37.698;2022-11-20T03:46:00;99602.09;;;-3.01;92.16
75428;BME280;64008;55.612;37.698;2022-11-20T03:48:26;99607.34;;;-3.04;91.60
75428;BME280;64008;55.612;37.698;2022-11-20T03:50:53;99618.34;;;-3.04;91.95
75428;BME280;64008;55.612;37.698;2022-11-20T03:53:19;99614.22;;;-3.07;91.19
75428;BME280;64008;55.612;37.698;2022-11-20T03:55:49;99621.34;;;-3.11;91.09
75428;BME280;64008;55.612;37.698;2022-11-20T03:58:15;99617.50;;;-3.10;91.44
75428;BME280;64008;55.612;37.698;2022-11-20T04:00:40;99621.66;;;-3.13;90.78
75428;BME280;64008;55.612;37.698;2022-11-20T04:03:06;99623.00;;;-3.10;91.07
75428;BME280;64008;55.612;37.698;2022-11-20T04:05:33;99630.19;;;-3.14;90.79
75428;BME280;64008;55.612;37.698;2022-11-20T04:08:00;99628.81;;;-3.12;91.10
75428;BME280;64008;55.612;37.698;2022-11-20T04:10:25;99632.34;;;-3.11;91.26
75428;BME280;64008;55.612;37.698;2022-11-20T04:12:51;99637.84;;;-3.11;91.19
75428;BME280;64008;55.612;37.698;2022-11-20T04:15:16;99634.03;;;-3.20;90.66
75428;BME280;64008;55.612;37.698;2022-11-20T04:17:42;99638.97;;;-3.17;90.77
75428;BME280;64008;55.612;37.698;2022-11-20T04:20:07;99634.84;;;-3.15;91.14
75428;BME280;64008;55.612;37.698;2022-11-20T04:22:33;99643.94;;;-3.14;90.92
75428;BME280;64008;55.612;37.698;2022-11-20T04:24:58;99644.47;;;-3.12;91.43
75428;BME280;64008;55.612;37.698;2022-11-20T04:27:24;99641.44;;;-3.11;91.21
75428;BME280;64008;55.612;37.698;2022-11-20T04:29:49;99642.28;;;-3.15;91.12
75428;BME280;64008;55.612;37.698;2022-11-20T04:32:15;99655.47;;;-3.12;91.32
75428;BME280;64008;55.612;37.698;2022-11-20T04:34:40;99655.19;;;-3.11;91.02
75428;BME280;64008;55.612;37.698;2022-11-20T04:37:06;99659.31;;;-3.18;90.33
75428;BME280;64008;55.612;37.698;2022-11-20T04:39:31;99659.31;;;-3.18;90.59
75428;BME280;64008;55.612;37.698;2022-11-20T04:41:56;99662.34;;;-3.15;90.74
75428;BME280;64008;55.612;37.698;2022-11-20T04:44:41;99669.22;;;-3.17;90.75
75428;BME280;64008;55.612;37.698;2022-11-20T04:47:06;99673.06;;;-3.18;91.04
75428;BME280;64008;55.612;37.698;2022-11-20T04:49:32;99678.03;;;-3.15;91.21
75428;BME280;64008;55.612;37.698;2022-11-20T04:51:58;99684.06;;;-3.18;90.74
75428;BME280;64008;55.612;37.698;2022-11-20T04:54:23;99669.78;;;-3.20;90.63
75428;BME280;64008;55.612;37.698;2022-11-20T04:56:49;99681.59;;;-3.20;91.06
75428;BME280;64008;55.612;37.698;2022-11-20T04:59:15;99687.91;;;-3.19;90.95
75428;BME280;64008;55.612;37.698;2022-11-20T05:01:41;99684.63;;;-3.21;90.99
75428;BME280;64008;55.612;37.698;2022-11-20T05:04:07;99691.78;;;-3.20;91.11
75428;BME280;64008;55.612;37.698;2022-11-20T05:06:32;99695.34;;;-3.20;91.20
75428;BME280;64008;55.612;37.698;2022-11-20T05:08:58;99686.81;;;-3.23;90.77
75428;BME280;64008;55.612;37.698;2022-11-20T05:11:24;99692.31;;;-3.23;90.58
75428;BME280;64008;55.612;37.698;2022-11-20T05:13:50;99691.78;;;-3.20;90.79
75428;BME280;64008;55.612;37.698;2022-11-20T05:16:19;99700.56;;;-3.18;91.11
75428;BME280;64008;55.612;37.698;2022-11-20T05:18:44;99709.66;;;-3.23;90.81
75428;BME280;64008;55.612;37.698;2022-11-20T05:21:10;99705.50;;;-3.25;90.42
75428;BME280;64008;55.612;37.698;2022-11-20T05:23:37;99706.06;;;-3.23;90.46
75428;BME280;64008;55.612;37.698;2022-11-20T05:26:03;99712.09;;;-3.26;90.34
75428;BME280;64008;55.612;37.698;2022-11-20T05:28:30;99721.75;;;-3.29;89.82
75428;BME280;64008;55.612;37.698;2022-11-20T05:31:03;99716.50;;;-3.25;90.34
75428;BME280;64008;55.612;37.698;2022-11-20T05:33:28;99722.56;;;-3.23;90.42
75428;BME280;64008;55.612;37.698;2022-11-20T05:35:58;99729.16;;;-3.19;90.92
75428;BME280;64008;55.612;37.698;2022-11-20T05:38:23;99734.13;;;-3.21;90.13
75428;BME280;64008;55.612;37.698;2022-11-20T05:40:49;99719.28;;;-3.20;90.30
75428;BME280;64008;55.612;37.698;2022-11-20T05:43:14;99726.41;;;-3.19;90.37
75428;BME280;64008;55.612;37.698;2022-11-20T05:45:40;99733.03;;;-3.15;90.46
75428;BME280;64008;55.612;37.698;2022-11-20T05:48:05;99741.25;;;-3.15;90.57
75428;BME280;64008;55.612;37.698;2022-11-20T05:50:31;99746.22;;;-3.17;90.00
75428;BME280;64008;55.612;37.698;2022-11-20T05:52:59;99756.09;;;-3.16;90.24
75428;BME280;64008;55.612;37.698;2022-11-20T05:55:26;99754.47;;;-3.17;89.69
75428;BME280;64008;55.612;37.698;2022-11-20T05:57:53;99756.66;;;-3.24;88.71
75428;BME280;64008;55.612;37.698;2022-11-20T06:00:19;99759.97;;;-3.27;89.17
75428;BME280;64008;55.612;37.698;2022-11-20T06:02:44;99769.84;;;-3.26;89.46
75428;BME280;64008;55.612;37.698;2022-11-20T06:05:10;99775.06;;;-3.25;89.43
75428;BME280;64008;55.612;37.698;2022-11-20T06:07:35;99770.41;;;-3.24;89.44
75428;BME280;64008;55.612;37.698;2022-11-20T06:10:01;99771.22;;;-3.19;89.83
75428;BME280;64008;55.612;37.698;2022-11-20T06:12:26;99766.00;;;-3.15;89.92
75428;BME280;64008;55.612;37.698;2022-11-20T06:14:52;99775.34;;;-3.16;89.21
75428;BME280;64008;55.612;37.698;2022-11-20T06:17:17;99779.78;;;-3.20;88.60
75428;BME280;64008;55.612;37.698;2022-11-20T06:19:42;99789.66;;;-3.14;89.41
75428;BME280;64008;55.612;37.698;2022-11-20T06:22:08;99796.25;;;-3.15;88.46
75428;BME280;64008;55.612;37.698;2022-11-20T06:24:33;99796.25;;;-3.15;88.50
75428;BME280;64008;55.612;37.698;2022-11-20T06:26:59;99800.94;;;-3.16;88.87
75428;BME280;64008;55.612;37.698;2022-11-20T06:29:24;99809.47;;;-3.12;89.21
75428;BME280;64008;55.612;37.698;2022-11-20T06:31:50;99807.56;;;-3.12;89.05
75428;BME280;64008;55.612;37.698;2022-11-20T06:34:15;99814.69;;;-3.16;88.13
75428;BME280;64008;55.612;37.698;2022-11-20T06:36:41;99817.44;;;-3.16;88.43
75428;BME280;64008;55.612;37.698;2022-11-20T06:39:06;99807.81;;;-3.13;88.62
75428;BME280;64008;55.612;37.698;2022-11-20T06:41:32;99811.09;;;-3.11;88.90
75428;BME280;64008;55.612;37.698;2022-11-20T06:43:57;99805.63;;;-3.06;89.21
75428;BME280;64008;55.612;37.698;2022-11-20T06:46:23;99794.91;;;-2.97;89.47
75428;BME280;64008;55.612;37.698;2022-11-20T06:48:48;99801.81;;;-2.90;89.69
75428;BME280;64008;55.612;37.698;2022-11-20T06:51:15;99800.69;;;-2.84;89.92
75428;BME280;64008;55.612;37.698;2022-11-20T06:53:40;99800.16;;;-2.81;89.91
75428;BME280;64008;55.612;37.698;2022-11-20T06:56:06;99809.25;;;-2.80;89.10
75428;BME280;64008;55.612;37.698;2022-11-20T06:58:33;99804.81;;;-2.76;89.73
75428;BME280;64008;55.612;37.698;2022-11-20T07:01:00;99806.75;;;-2.72;89.75
75428;BME280;64008;55.612;37.698;2022-11-20T07:03:25;99803.19;;;-2.67;90.04
75428;BME280;64008;55.612;37.698;2022-11-20T07:05:51;99795.47;;;-2.65;89.94
75428;BME280;64008;55.612;37.698;2022-11-20T07:08:16;99797.38;;;-2.60;89.79
75428;BME280;64008;55.612;37.698;2022-11-20T07:10:42;99793.81;;;-2.56;90.55
75428;BME280;64008;55.612;37.698;2022-11-20T07:13:07;99789.13;;;-2.50;89.96
75428;BME280;64008;55.612;37.698;2022-11-20T07:15:33;99800.97;;;-2.50;89.25
75428;BME280;64008;55.612;37.698;2022-11-20T07:17:59;99805.63;;;-2.55;87.90
75428;BME280;64008;55.612;37.698;2022-11-20T07:20:25;99824.63;;;-2.54;88.21
75428;BME280;64008;55.612;37.698;2022-11-20T07:22:57;99819.69;;;-2.62;86.84
75428;BME280;64008;55.612;37.698;2022-11-20T07:25:24;99807.59;;;-2.56;88.05
75428;BME280;64008;55.612;37.698;2022-11-20T07:27:50;99807.84;;;-2.52;88.04
75428;BME280;64008;55.612;37.698;2022-11-20T07:30:16;99813.34;;;-2.47;88.16
75428;BME280;64008;55.612;37.698;2022-11-20T07:32:42;99805.66;;;-2.40;88.07
75428;BME280;64008;55.612;37.698;2022-11-20T07:35:07;99809.47;;;-2.36;89.29
75428;BME280;64008;55.612;37.698;2022-11-20T07:37:36;99816.63;;;-2.30;89.01
75428;BME280;64008;55.612;37.698;2022-11-20T07:40:02;99816.34;;;-2.28;88.61
75428;BME280;64008;55.612;37.698;2022-11-20T07:42:28;99814.16;;;-2.26;88.72
75428;BME280;64008;55.612;37.698;2022-11-20T07:44:54;99826.28;;;-2.33;86.95
75428;BME280;64008;55.612;37.698;2022-11-20T07:47:19;99831.53;;;-2.41;86.40
75428;BME280;64008;55.612;37.698;2022-11-20T07:49:44;99832.59;;;-2.37;87.06
75428;BME280;64008;55.612;37.698;2022-11-20T07:52:10;99834.53;;;-2.33;87.25
75428;BME280;64008;55.612;37.698;2022-11-20T07:54:35;99829.03;;;-2.33;86.75
75428;BME280;64008;55.612;37.698;2022-11-20T07:57:01;99825.47;;;-2.33;86.52
75428;BME280;64008;55.612;37.698;2022-11-20T07:59:26;99832.34;;;-2.25;87.11
75428;BME280;64008;55.612;37.698;2022-11-20T08:01:52;99837.56;;;-2.24;87.12
75428;BME280;64008;55.612;37.698;2022-11-20T08:04:17;99836.19;;;-2.26;86.75
75428;BME280;64008;55.612;37.698;2022-11-20T08:06:43;99836.47;;;-2.28;86.40
75428;BME280;64008;55.612;37.698;2022-11-20T08:09:08;99842.25;;;-2.35;85.73
75428;BME280;64008;55.612;37.698;2022-11-20T08:11:34;99850.25;;;-2.33;86.26
75428;BME280;64008;55.612;37.698;2022-11-20T08:14:18;99853.00;;;-2.33;86.21
75428;BME280;64008;55.612;37.698;2022-11-20T08:16:46;99857.63;;;-2.23;87.29
75428;BME280;64008;55.612;37.698;2022-11-20T08:19:16;99852.97;;;-2.18;87.08
75428;BME280;64008;55.612;37.698;2022-11-20T08:21:42;99850.19;;;-2.13;87.54
75428;BME280;64008;55.612;37.698;2022-11-20T08:24:09;99849.09;;;-2.12;87.17
75428;BME280;64008;55.612;37.698;2022-11-20T08:26:36;99857.38;;;-2.12;86.04
75428;BME280;64008;55.612;37.698;2022-11-20T08:29:02;99855.19;;;-2.20;85.45
75428;BME280;64008;55.612;37.698;2022-11-20T08:31:28;99848.84;;;-2.20;85.32
75428;BME280;64008;55.612;37.698;2022-11-20T08:33:54;99856.81;;;-2.19;85.96
75428;BME280;64008;55.612;37.698;2022-11-20T08:36:21;99855.19;;;-2.20;85.34
75428;BME280;64008;55.612;37.698;2022-11-20T08:38:47;99862.03;;;-2.12;86.29
75428;BME280;64008;55.612;37.698;2022-11-20T08:41:13;99862.59;;;-2.05;86.51
75428;BME280;64008;55.612;37.698;2022-11-20T08:44:08;99861.44;;;-1.89;88.22
75428;BME280;64008;55.612;37.698;2022-11-20T08:46:36;99857.28;;;-1.81;88.57
75428;BME280;64008;55.612;37.698;2022-11-20T08:49:07;99867.78;;;-1.78;88.32
75428;BME280;64008;55.612;37.698;2022-11-20T08:51:35;99866.94;;;-1.79;87.30
75428;BME280;64008;55.612;37.698;2022-11-20T08:54:01;99883.22;;;-1.77;87.06
75428;BME280;64008;55.612;37.698;2022-11-20T08:56:27;99892.00;;;-1.75;87.10
75428;BME280;64008;55.612;37.698;2022-11-20T08:58:53;99906.34;;;-1.73;87.46
75428;BME280;64008;55.612;37.698;2022-11-20T09:01:19;99908.81;;;-1.72;86.53
75428;BME280;64008;55.612;37.698;2022-11-20T09:03:45;99901.38;;;-1.71;86.90
75428;BME280;64008;55.612;37.698;2022-11-20T09:06:11;99905.50;;;-1.69;86.86
75428;BME280;64008;55.612;37.698;2022-11-20T09:08:37;99909.09;;;-1.68;86.17
75428;BME280;64008;55.612;37.698;2022-11-20T09:11:04;99914.63;;;-1.68;86.53
75428;BME280;64008;55.612;37.698;2022-11-20T09:13:30;99922.03;;;-1.64;85.63
75428;BME280;64008;55.612;37.698;2022-11-20T09:15:58;99919.84;;;-1.62;86.00
75428;BME280;64008;55.612;37.698;2022-11-20T09:18:24;99922.00;;;-1.59;86.02
75428;BME280;64008;55.612;37.698;2022-11-20T09:20:50;99923.94;;;-1.59;85.68
75428;BME280;64008;55.612;37.698;2022-11-20T09:23:16;99925.59;;;-1.53;86.77
75428;BME280;64008;55.612;37.698;2022-11-20T09:25:42;99936.91;;;-1.55;85.51
75428;BME280;64008;55.612;37.698;2022-11-20T09:28:08;99944.63;;;-1.57;84.72
75428;BME280;64008;55.612;37.698;2022-11-20T09:30:34;99941.63;;;-1.60;84.98
75428;BME280;64008;55.612;37.698;2022-11-20T09:32:59;99949.88;;;-1.60;85.77
75428;BME280;64008;55.612;37.698;2022-11-20T09:35:25;99954.25;;;-1.59;85.41
75428;BME280;64008;55.612;37.698;2022-11-20T09:37:50;99958.69;;;-1.63;85.64
75428;BME280;64008;55.612;37.698;2022-11-20T09:40:21;99950.16;;;-1.62;85.26
75428;BME280;64008;55.612;37.698;2022-11-20T09:42:58;99956.75;;;-1.58;85.96
75428;BME280;64008;55.612;37.698;2022-11-20T09:45:54;99948.22;;;-1.56;85.67
75428;BME280;64008;55.612;37.698;2022-11-20T09:51:09;99953.75;;;-1.61;85.02
75428;BME280;64008;55.612;37.698;2022-11-20T09:53:46;99948.78;;;-1.64;85.06
75428;BME280;64008;55.612;37.698;2022-11-20T09:56:19;99949.88;;;-1.75;85.06
75428;BME280;64008;55.612;37.698;2022-11-20T09:58:48;99961.75;;;-1.80;84.55
75428;BME280;64008;55.612;37.698;2022-11-20T10:01:17;99958.72;;;-1.83;84.99
75428;BME280;64008;55.612;37.698;2022-11-20T10:06:32;99967.53;;;-1.81;86.63
75428;BME280;64008;55.612;37.698;2022-11-20T10:09:14;99969.47;;;-1.77;86.35
75428;BME280;64008;55.612;37.698;2022-11-20T10:11:56;99959.53;;;-1.73;86.19
75428;BME280;64008;55.612;37.698;2022-11-20T10:14:50;99966.72;;;-1.82;86.74
75428;BME280;64008;55.612;37.698;2022-11-20T10:17:35;99968.66;;;-1.92;86.65
75428;BME280;64008;55.612;37.698;2022-11-20T10:23:30;99975.81;;;-2.02;88.05
75428;BME280;64008;55.612;37.698;2022-11-20T10:26:03;99982.41;;;-1.98;88.35
75428;BME280;64008;55.612;37.698;2022-11-20T10:31:46;99984.34;;;-2.03;87.86
75428;BME280;64008;55.612;37.698;2022-11-20T10:37:24;99991.78;;;-2.04;87.79
75428;BME280;64008;55.612;37.698;2022-11-20T10:39:56;99980.78;;;-2.04;87.76
75428;BME280;64008;55.612;37.698;2022-11-20T10:42:45;99990.69;;;-1.98;88.26
75428;BME280;64008;55.612;37.698;2022-11-20T10:47:50;100001.44;;;-1.91;87.71
75428;BME280;64008;55.612;37.698;2022-11-20T10:50:19;99986.00;;;-1.87;87.89
75428;BME280;64008;55.612;37.698;2022-11-20T10:55:48;99995.91;;;-1.91;86.94
75428;BME280;64008;55.612;37.698;2022-11-20T11:00:50;100000.63;;;-1.86;86.84
75428;BME280;64008;55.612;37.698;2022-11-20T11:03:29;99998.66;;;-1.91;86.38
75428;BME280;64008;55.612;37.698;2022-11-20T11:08:36;100005.28;;;-1.97;86.07
75428;BME280;64008;55.612;37.698;2022-11-20T11:11:23;100015.50;;;-2.08;85.72
75428;BME280;64008;55.612;37.698;2022-11-20T11:13:50;100003.63;;;-2.13;85.84
75428;BME280;64008;55.612;37.698;2022-11-20T11:16:24;100005.28;;;-2.12;86.04
75428;BME280;64008;55.612;37.698;2022-11-20T11:18:50;100013.53;;;-2.07;86.72
75428;BME280;64008;55.612;37.698;2022-11-20T11:21:25;100010.53;;;-2.01;87.66
75428;BME280;64008;55.612;37.698;2022-11-20T11:24:00;100027.34;;;-1.97;86.30
75428;BME280;64008;55.612;37.698;2022-11-20T11:26:26;100009.97;;;-1.98;85.67
75428;BME280;64008;55.612;37.698;2022-11-20T11:29:00;100019.38;;;-1.94;86.25
75428;BME280;64008;55.612;37.698;2022-11-20T11:31:28;100011.06;;;-1.99;85.16
75428;BME280;64008;55.612;37.698;2022-11-20T11:34:07;100004.75;;;-2.09;84.87
75428;BME280;64008;55.612;37.698;2022-11-20T11:36:36;99996.47;;;-2.14;84.12
75428;BME280;64008;55.612;37.698;2022-11-20T11:39:04;100017.38;;;-2.23;84.38
75428;BME280;64008;55.612;37.698;2022-11-20T11:41:33;100017.13;;;-2.22;84.60
75428;BME280;64008;55.612;37.698;2022-11-20T11:44:16;100008.84;;;-2.22;84.99
75428;BME280;64008;55.612;37.698;2022-11-20T11:47:02;100014.09;;;-2.25;85.10
75428;BME280;64008;55.612;37.698;2022-11-20T11:49:29;100019.34;;;-2.24;85.29
75428;BME280;64008;55.612;37.698;2022-11-20T11:54:38;100021.50;;;-2.31;84.82
75428;BME280;64008;55.612;37.698;2022-11-20T12:07:56;100037.50;;;-2.28;83.60
75428;BME280;64008;55.612;37.698;2022-11-20T12:10:40;100033.34;;;-2.36;83.87
75428;BME280;64008;55.612;37.698;2022-11-20T12:15:56;100032.25;;;-2.40;83.65
75428;BME280;64008;55.612;37.698;2022-11-20T12:18:22;100035.22;;;-2.51;83.62
75428;BME280;64008;55.612;37.698;2022-11-20T12:21:18;100033.31;;;-2.51;84.26
75428;BME280;64008;55.612;37.698;2022-11-20T12:32:05;100023.66;;;-2.53;83.53
75428;BME280;64008;55.612;37.698;2022-11-20T12:40:40;100018.94;;;-2.73;83.42
75428;BME280;64008;55.612;37.698;2022-11-20T12:43:28;100035.97;;;-2.71;83.70
75428;BME280;64008;55.612;37.698;2022-11-20T13:00:18;100039.34;;;-2.59;83.85
75428;BME280;64008;55.612;37.698;2022-11-20T13:08:36;100043.72;;;-2.63;82.48
75428;BME280;64008;55.612;37.698;2022-11-20T13:16:19;100041.53;;;-2.61;82.73
75428;BME280;64008;55.612;37.698;2022-11-20T13:18:47;100049.53;;;-2.59;83.36
75428;BME280;64008;55.612;37.698;2022-11-20T13:23:39;100045.38;;;-2.62;83.69
75428;BME280;64008;55.612;37.698;2022-11-20T13:26:15;100064.94;;;-2.63;83.11
75428;BME280;64008;55.612;37.698;2022-11-20T13:28:41;100055.84;;;-2.64;83.51
75428;BME280;64008;55.612;37.698;2022-11-20T13:31:28;100067.38;;;-2.62;84.12
75428;BME280;64008;55.612;37.698;2022-11-20T13:33:55;100069.34;;;-2.57;84.48
75428;BME280;64008;55.612;37.698;2022-11-20T13:36:24;100068.25;;;-2.56;83.90
75428;BME280;64008;55.612;37.698;2022-11-20T13:38:52;100064.38;;;-2.60;83.78
75428;BME280;64008;55.612;37.698;2022-11-20T13:41:35;100057.47;;;-2.63;83.60
75428;BME280;64008;55.612;37.698;2022-11-20T13:44:10;100056.09;;;-2.65;83.42
75428;BME280;64008;55.612;37.698;2022-11-20T13:46:41;100061.56;;;-2.71;83.52
75428;BME280;64008;55.612;37.698;2022-11-20T13:49:15;100070.13;;;-2.72;83.88
75428;BME280;64008;55.612;37.698;2022-11-20T13:51:43;100065.44;;;-2.72;84.70
75428;BME280;64008;55.612;37.698;2022-11-20T14:02:14;100072.81;;;-2.82;84.60
75428;BME280;64008;55.612;37.698;2022-11-20T14:04:52;100077.78;;;-2.79;84.78
75428;BME280;64008;55.612;37.698;2022-11-20T14:07:20;100083.00;;;-2.78;84.93
75428;BME280;64008;55.612;37.698;2022-11-20T14:09:54;100084.41;;;-2.80;84.23
75428;BME280;64008;55.612;37.698;2022-11-20T14:12:21;100084.09;;;-2.79;85.31
75428;BME280;64008;55.612;37.698;2022-11-20T14:14:52;100090.75;;;-2.75;85.11
75428;BME280;64008;55.612;37.698;2022-11-20T14:19:47;100100.09;;;-2.76;84.78
75428;BME280;64008;55.612;37.698;2022-11-20T14:22:24;100102.84;;;-2.71;84.54
75428;BME280;64008;55.612;37.698;2022-11-20T14:27:34;100093.50;;;-2.70;84.28
75428;BME280;64008;55.612;37.698;2022-11-20T14:30:01;100091.31;;;-2.67;84.62
75428;BME280;64008;55.612;37.698;2022-11-20T14:32:29;100091.31;;;-2.67;84.93
75428;BME280;64008;55.612;37.698;2022-11-20T14:34:59;100096.31;;;-2.64;84.54